Time;durP1;ratioP1;P1;durP2;ratioP2;P2;SDS_P1;SDS_P2;PMS_P1;PMS_P2;Temp;Humidity;BMP_temperature;BMP_pressure;BME280_temperature;BME280_humidity;BME280_pressure;Samples;Min_cycle;Max_cycle;Signal;HPM_P1;HPM_P2
2023/10/03 00:00:24;;;;;;;10.02;9.73;;;;;;;-141.02;100.00;39378.31;5074595;28;20226;-64
2023/10/03 00:02:55;;;;;;;10.18;9.88;;;;;;;-141.02;100.00;39293.94;5074943;28;20190;-64
2023/10/03 00:05:23;;;;;;;10.30;10.00;;;;;;;-141.02;100.00;39305.44;5074686;28;20590;-65
2023/10/03 00:07:53;;;;;;;9.93;9.63;;;;;;;-141.02;100.00;39265.19;5074503;28;20198;-65
2023/10/03 00:10:21;;;;;;;10.00;9.70;;;;;;;-141.02;100.00;39247.91;5074529;28;20195;-63
2023/10/03 00:12:55;;;;;;;10.18;9.88;;;;;;;-141.02;100.00;39221.06;5074459;28;20202;-62
2023/10/03 00:15:25;;;;;;;9.60;9.30;;;;;;;-141.02;100.00;39165.47;5074439;28;20200;-65
2023/10/03 00:17:53;;;;;;;9.65;9.35;;;;;;;-141.02;100.00;39113.69;5074394;28;20673;-62
2023/10/03 00:20:22;;;;;;;9.48;9.18;;;;;;;-141.02;100.00;39061.91;5074254;28;20265;-65
2023/10/03 00:22:50;;;;;;;9.90;9.60;;;;;;;-141.02;100.00;39086.84;5074280;28;20726;-64
2023/10/03 00:25:21;;;;;;;9.70;9.40;;;;;;;-141.02;100.00;39098.34;5074130;28;20202;-63
2023/10/03 00:27:54;;;;;;;9.80;9.50;;;;;;;-141.02;100.00;39117.53;5074182;28;20669;-65
2023/10/03 00:30:24;;;;;;;9.60;9.30;;;;;;;-141.02;100.00;39125.19;5074434;28;20198;-64
2023/10/03 00:32:52;;;;;;;9.80;9.50;;;;;;;-141.02;100.00;39090.69;5074073;28;20204;-65
2023/10/03 00:35:20;;;;;;;10.00;9.70;;;;;;;-141.02;100.00;39090.69;5074027;28;20201;-62
2023/10/03 00:37:48;;;;;;;10.10;9.80;;;;;;;-141.02;100.00;39077.25;5073878;28;20309;-64
2023/10/03 00:40:27;;;;;;;10.00;9.70;;;;;;;-141.02;100.00;39125.19;5074139;28;20237;-64
2023/10/03 00:42:58;;;;;;;9.65;9.35;;;;;;;-141.02;100.00;39063.81;5073894;28;20244;-64
2023/10/03 00:45:26;;;;;;;9.70;9.40;;;;;;;-141.02;100.00;39056.16;5073911;28;20222;-64
2023/10/03 00:47:54;;;;;;;9.70;9.40;;;;;;;-141.02;100.00;39079.16;5073814;28;20248;-63
2023/10/03 00:50:25;;;;;;;9.80;9.50;;;;;;;-141.02;100.00;39048.50;5074121;28;20202;-64
2023/10/03 00:52:55;;;;;;;9.60;9.30;;;;;;;-141.02;100.00;39075.34;5073596;28;20587;-63
2023/10/03 00:55:26;;;;;;;10.00;9.70;;;;;;;-141.02;100.00;39063.81;5073634;28;20198;-63
2023/10/03 00:58:06;;;;;;;10.13;9.82;;;;;;;-141.02;100.00;39069.59;5073583;28;20190;-63
2023/10/03 01:00:37;;;;;;;10.10;9.80;;;;;;;-141.02;100.00;39060.00;5073609;28;20214;-62
2023/10/03 01:03:05;;;;;;;10.20;9.90;;;;;;;-141.02;100.00;39063.81;5073595;28;20222;-64
2023/10/03 01:05:32;;;;;;;10.30;10.00;;;;;;;-141.02;100.00;39033.16;5073751;28;20200;-64
2023/10/03 01:07:59;;;;;;;10.25;9.95;;;;;;;-141.02;100.00;39021.63;5073313;28;20198;-64
2023/10/03 01:10:28;;;;;;;9.65;9.35;;;;;;;-141.02;100.00;39025.47;5073337;28;20199;-62
2023/10/03 01:12:56;;;;;;;9.90;9.60;;;;;;;-141.02;100.00;39017.81;5073224;28;20256;-61
2023/10/03 01:15:28;;;;;;;10.10;9.80;;;;;;;-141.02;100.00;39015.88;5073364;28;20244;-65
2023/10/03 01:17:59;;;;;;;10.10;9.80;;;;;;;-141.02;100.00;38990.97;5073156;28;20248;-63
2023/10/03 01:20:29;;;;;;;9.50;9.20;;;;;;;-141.02;100.00;38941.09;5073458;28;20214;-65
2023/10/03 01:22:57;;;;;;;9.00;8.80;;;;;;;-141.02;100.00;38937.28;5073433;28;20186;-63
2023/10/03 01:25:27;;;;;;;9.30;9.00;;;;;;;-141.02;100.00;38889.34;5073306;28;20703;-64
2023/10/03 01:27:56;;;;;;;9.15;8.93;;;;;;;-141.02;100.00;38891.25;5072998;28;20220;-64
2023/10/03 01:30:23;;;;;;;9.45;9.15;;;;;;;-141.02;100.00;38856.72;5073266;28;20197;-63
2023/10/03 01:32:55;;;;;;;9.00;8.80;;;;;;;-141.02;100.00;38787.72;5073176;28;20226;-63
2023/10/03 01:35:22;;;;;;;8.73;8.52;;;;;;;-141.02;100.00;38772.38;5072867;28;20226;-64
2023/10/03 01:37:50;;;;;;;8.60;8.40;;;;;;;-141.02;100.00;38722.50;5072711;28;20226;-62
2023/10/03 01:40:19;;;;;;;8.50;8.30;;;;;;;-141.02;100.00;38668.81;5072948;28;20195;-57
2023/10/03 01:42:48;;;;;;;8.20;8.00;;;;;;;-141.02;100.00;38622.81;5072991;28;20562;-62
2023/10/03 01:45:18;;;;;;;8.20;8.00;;;;;;;-141.02;100.00;38592.13;5073018;28;20194;-62
2023/10/03 01:47:47;;;;;;;7.87;7.67;;;;;;;-141.02;100.00;38549.94;5072555;28;20703;-64
2023/10/03 01:50:17;;;;;;;7.43;7.23;;;;;;;-141.02;100.00;38486.69;5072557;28;20198;-62
2023/10/03 01:52:46;;;;;;;7.80;7.60;;;;;;;-141.02;100.00;38450.25;5072480;28;20195;-62
2023/10/03 01:55:14;;;;;;;7.60;7.40;;;;;;;-141.02;100.00;38385.06;5072485;28;20198;-59
2023/10/03 01:57:41;;;;;;;7.73;7.53;;;;;;;-141.02;100.00;38304.53;5072446;28;20198;-62
2023/10/03 02:00:24;;;;;;;7.20;7.00;;;;;;;-141.02;100.00;38273.88;5072721;28;20229;-61
2023/10/03 02:02:52;;;;;;;7.20;7.00;;;;;;;-141.02;100.00;38281.53;5072652;28;20190;-61
2023/10/03 02:05:21;;;;;;;7.10;6.90;;;;;;;-141.02;100.00;38227.84;5072301;28;20241;-61
2023/10/03 02:11:11;;;;;;;7.55;7.35;;;;;;;-141.02;100.00;38270.03;5072484;28;20182;-59
2023/10/03 02:13:42;;;;;;;7.53;7.32;;;;;;;-141.02;100.00;38308.38;5072539;28;20199;-63
2023/10/03 02:16:12;;;;;;;7.63;7.43;;;;;;;-141.02;100.00;38316.06;5072110;28;20237;-60
2023/10/03 02:18:40;;;;;;;8.30;8.10;;;;;;;-141.02;100.00;38342.88;5072142;28;20195;-63
2023/10/03 02:21:09;;;;;;;8.70;8.50;;;;;;;-141.02;100.00;38350.56;5071929;28;20592;-62
2023/10/03 02:23:36;;;;;;;8.50;8.30;;;;;;;-141.02;100.00;38410.00;5072437;28;20248;-63
2023/10/03 02:26:10;;;;;;;8.40;8.20;;;;;;;-141.02;100.00;38392.75;5072062;28;20726;-62
2023/10/03 02:28:38;;;;;;;8.68;8.48;;;;;;;-141.02;100.00;38431.09;5072348;28;20276;-62
2023/10/03 02:31:07;;;;;;;8.63;8.43;;;;;;;-141.02;100.00;38408.06;5072324;28;20201;-64
2023/10/03 02:33:38;;;;;;;8.43;8.23;;;;;;;-141.02;100.00;38396.56;5072304;28;20279;-64
2023/10/03 02:36:07;;;;;;;9.05;8.85;;;;;;;-141.02;100.00;38381.22;5071864;28;20273;-63
2023/10/03 02:38:37;;;;;;;8.85;8.65;;;;;;;-141.02;100.00;38450.25;5072266;28;20186;-62
2023/10/03 02:41:06;;;;;;;8.90;8.70;;;;;;;-141.02;100.00;38427.25;5071873;28;20254;-62
2023/10/03 02:43:35;;;;;;;9.15;8.95;;;;;;;-141.02;100.00;38431.09;5072197;28;20280;-64
2023/10/03 02:46:05;;;;;;;9.32;9.02;;;;;;;-141.02;100.00;38452.16;5071911;28;20194;-61
2023/10/03 02:48:33;;;;;;;9.30;9.00;;;;;;;-141.02;100.00;38454.09;5071864;28;20537;-64
2023/10/03 02:51:02;;;;;;;9.50;9.20;;;;;;;-141.02;100.00;38461.75;5072144;28;20194;-60
2023/10/03 02:53:29;;;;;;;9.35;9.05;;;;;;;-141.02;100.00;38488.59;5071801;28;20675;-62
2023/10/03 02:55:56;;;;;;;9.40;9.10;;;;;;;-141.02;100.00;38488.59;5071811;28;20199;-63
2023/10/03 03:01:52;;;;;;;9.80;9.50;;;;;;;-141.02;100.00;38480.94;5070173;28;20686;-61
2023/10/03 03:04:23;;;;;;;9.80;9.50;;;;;;;-141.02;100.00;38469.44;5071733;28;20251;-64
2023/10/03 03:07:01;;;;;;;8.90;8.70;;;;;;;-141.02;100.00;38406.16;5071981;28;20226;-64
2023/10/03 03:12:49;;;;;;;8.40;8.20;;;;;;;-141.02;100.00;38369.72;5071646;28;20189;-63
2023/10/03 03:15:22;;;;;;;8.80;8.60;;;;;;;-141.02;100.00;38331.38;5071567;28;20247;-64
2023/10/03 03:17:49;;;;;;;8.30;8.10;;;;;;;-141.02;100.00;38260.44;5071939;28;20205;-64
2023/10/03 03:20:57;;;;;;;8.00;7.80;;;;;;;-141.02;100.00;38162.69;5074605;28;20228;-61
2023/10/03 03:23:32;;;;;;;7.50;7.30;;;;;;;-141.02;100.00;38074.50;5075428;28;20240;-63
2023/10/03 03:26:48;;;;;;;7.57;7.37;;;;;;;-141.02;100.00;38005.47;5075365;28;20255;-62
2023/10/03 03:29:21;;;;;;;6.80;6.60;;;;;;;-141.02;100.00;37938.38;5075181;28;20191;-63
2023/10/03 03:31:50;;;;;;;6.10;6.00;;;;;;;-141.02;100.00;37878.97;5075502;28;20194;-64
2023/10/03 03:34:17;;;;;;;6.10;6.00;;;;;;;-141.02;100.00;37840.63;5075140;28;20190;-65
2023/10/03 03:36:46;;;;;;;5.83;5.73;;;;;;;-141.02;100.00;37809.94;5075119;28;20230;-63
2023/10/03 03:39:15;;;;;;;6.00;5.90;;;;;;;-141.02;100.00;37775.44;5075120;28;20198;-62
2023/10/03 03:41:43;;;;;;;5.77;5.67;;;;;;;-141.02;100.00;37744.78;5074962;28;20236;-58
2023/10/03 03:44:11;;;;;;;5.63;5.53;;;;;;;-141.02;100.00;37712.19;5074960;28;20664;-63
2023/10/03 03:46:40;;;;;;;5.70;5.60;;;;;;;-141.02;100.00;37670.03;5075171;28;20203;-63
2023/10/03 03:49:08;;;;;;;5.53;5.43;;;;;;;-141.02;100.00;37641.28;5074910;28;20611;-62
2023/10/03 03:51:36;;;;;;;5.40;5.30;;;;;;;-141.02;100.00;37637.44;5074873;28;20198;-61
2023/10/03 03:54:09;;;;;;;5.20;5.10;;;;;;;-141.02;100.00;37627.84;5075170;28;20283;-63
2023/10/03 03:56:39;;;;;;;5.27;5.17;;;;;;;-141.02;100.00;37635.53;5075114;28;20209;-58
2023/10/03 03:59:08;;;;;;;5.33;5.23;;;;;;;-141.02;100.00;37606.78;5074740;28;20186;-64
2023/10/03 04:01:35;;;;;;;5.23;5.13;;;;;;;-141.02;100.00;37587.59;5074558;28;20761;-61
2023/10/03 04:04:03;;;;;;;4.80;4.70;;;;;;;-141.02;100.00;37595.28;5074996;28;20199;-65
2023/10/03 04:06:32;;;;;;;4.90;4.80;;;;;;;-141.02;100.00;37622.09;5074935;28;20222;-63
2023/10/03 04:08:59;;;;;;;5.30;5.20;;;;;;;-141.02;100.00;37637.44;5074476;28;20294;-63
2023/10/03 04:11:26;;;;;;;4.90;4.80;;;;;;;-141.02;100.00;37706.44;5074829;28;20351;-64
2023/10/03 04:13:55;;;;;;;4.80;4.70;;;;;;;-141.02;100.00;37758.19;5074381;28;20201;-64
2023/10/03 04:16:26;;;;;;;5.00;4.90;;;;;;;-141.02;100.00;37808.03;5074416;28;20690;-63
2023/10/03 04:18:54;;;;;;;5.07;4.97;;;;;;;-141.02;100.00;37878.97;5074401;28;20183;-62
2023/10/03 04:21:21;;;;;;;4.90;4.80;;;;;;;-141.02;100.00;38009.31;5074541;28;20245;-63
2023/10/03 04:23:49;;;;;;;4.77;4.67;;;;;;;-141.02;100.00;38124.34;5074278;28;20198;-63
2023/10/03 04:26:16;;;;;;;4.73;4.63;;;;;;;-141.02;100.00;38220.19;5074147;28;20191;-64
2023/10/03 04:28:43;;;;;;;4.67;4.57;;;;;;;-141.02;100.00;38296.88;5074132;28;20197;-64
2023/10/03 04:31:12;;;;;;;4.43;4.33;;;;;;;-141.02;100.00;38415.75;5074086;28;20570;-63
2023/10/03 04:33:39;;;;;;;4.13;4.03;;;;;;;-141.02;100.00;38536.53;5074401;28;20220;-60
2023/10/03 04:36:09;;;;;;;4.30;4.20;;;;;;;-141.02;100.00;38615.13;5074142;28;20243;-63
2023/10/03 04:38:36;;;;;;;4.37;4.27;;;;;;;-141.02;100.00;38716.75;5074360;28;20190;-63
2023/10/03 04:41:07;;;;;;;4.27;4.17;;;;;;;-141.02;100.00;38776.19;5074589;28;20202;-64
2023/10/03 04:43:34;;;;;;;4.70;4.60;;;;;;;-141.02;100.00;38837.56;5073914;28;20575;-65
2023/10/03 04:46:02;;;;;;;4.80;4.70;;;;;;;-141.02;100.00;38918.09;5073849;28;20205;-64
2023/10/03 04:48:31;;;;;;;4.37;4.27;;;;;;;-141.02;100.00;38927.69;5074070;28;20253;-62
2023/10/03 04:50:59;;;;;;;4.10;4.00;;;;;;;-141.02;100.00;38979.47;5073994;28;20198;-62
2023/10/03 04:53:26;;;;;;;4.30;4.20;;;;;;;-141.02;100.00;39013.97;5074024;28;20202;-59
2023/10/03 04:55:53;;;;;;;4.53;4.43;;;;;;;-141.02;100.00;39048.50;5073675;28;20201;-63
2023/10/03 04:58:21;;;;;;;4.27;4.17;;;;;;;-141.02;100.00;39063.81;5073563;28;20190;-59
2023/10/03 05:00:48;;;;;;;4.70;4.60;;;;;;;-141.02;100.00;39140.53;5073811;28;20619;-59
2023/10/03 05:03:18;;;;;;;4.72;4.63;;;;;;;-141.02;100.00;39155.88;5073403;28;20664;-59
2023/10/03 05:05:48;;;;;;;4.55;4.45;;;;;;;-141.02;100.00;39209.56;5073456;28;20199;-59
2023/10/03 05:08:15;;;;;;;5.00;4.90;;;;;;;-141.02;100.00;39269.00;5073431;28;20194;-59
2023/10/03 05:10:43;;;;;;;5.27;5.17;;;;;;;-141.02;100.00;39293.94;5073340;28;20195;-60
2023/10/03 05:13:10;;;;;;;5.40;5.30;;;;;;;-141.02;100.00;39295.88;5073631;28;20237;-62
2023/10/03 05:15:37;;;;;;;6.18;6.07;;;;;;;-141.02;100.00;39297.78;5073533;28;20316;-61
2023/10/03 05:18:06;;;;;;;6.30;6.20;;;;;;;-141.02;100.00;39288.19;5073187;28;20201;-63
2023/10/03 05:20:37;;;;;;;6.60;6.40;;;;;;;-141.02;100.00;39343.81;5073407;28;20287;-59
2023/10/03 05:23:06;;;;;;;6.50;6.30;;;;;;;-141.02;100.00;39320.78;5072994;28;20214;-63
2023/10/03 05:25:36;;;;;;;6.85;6.65;;;;;;;-141.02;100.00;39378.31;5073128;28;20202;-64
2023/10/03 05:28:05;;;;;;;7.15;6.95;;;;;;;-141.02;100.00;39428.19;5073031;28;20198;-61
2023/10/03 05:30:34;;;;;;;7.07;6.88;;;;;;;-141.02;100.00;39405.19;5073222;28;20277;-59
2023/10/03 05:33:01;;;;;;;7.40;7.20;;;;;;;-141.02;100.00;39458.88;5073216;28;20277;-63
2023/10/03 05:35:28;;;;;;;8.05;7.85;;;;;;;-141.02;100.00;39468.47;5072793;28;20202;-64
2023/10/03 05:37:55;;;;;;;8.05;7.85;;;;;;;-141.02;100.00;39524.09;5072715;28;20295;-61
2023/10/03 05:40:23;;;;;;;8.98;8.77;;;;;;;-141.02;100.00;39669.84;5072737;28;20201;-61
2023/10/03 05:42:51;;;;;;;9.10;8.90;;;;;;;-141.02;100.00;39606.56;5072263;28;20226;-59
2023/10/03 05:45:19;;;;;;;9.35;9.05;;;;;;;-141.02;100.00;39604.63;5072580;28;20191;-61
2023/10/03 05:47:47;;;;;;;9.70;9.40;;;;;;;-141.02;100.00;39581.63;5072573;28;20660;-61
2023/10/03 05:50:16;;;;;;;10.27;9.98;;;;;;;-141.02;100.00;39573.94;5072616;28;20221;-59
2023/10/03 05:52:44;;;;;;;10.70;10.40;;;;;;;-141.02;100.00;39577.78;5072503;28;20696;-63
2023/10/03 05:55:11;;;;;;;11.10;10.80;;;;;;;-141.02;100.00;39560.53;5072790;28;20202;-60
2023/10/03 05:57:42;;;;;;;11.95;11.55;;;;;;;-141.02;100.00;39581.63;5072395;28;20241;-61
2023/10/03 06:00:10;;;;;;;12.45;12.05;;;;;;;-141.02;100.00;39581.63;5072723;28;20641;-63
2023/10/03 06:02:39;;;;;;;12.30;11.90;;;;;;;-141.02;100.00;39610.38;5072563;28;20230;-58
2023/10/03 06:05:07;;;;;;;12.20;11.80;;;;;;;-141.02;100.00;39612.31;5072668;28;20194;-61
2023/10/03 06:07:34;;;;;;;12.35;11.95;;;;;;;-141.02;100.00;39675.59;5072327;28;20656;-62
2023/10/03 06:10:04;;;;;;;12.13;11.73;;;;;;;-141.02;100.00;39731.22;5072580;28;20209;-60
2023/10/03 06:12:31;;;;;;;12.48;12.07;;;;;;;-141.02;100.00;39704.38;5072236;28;20195;-63
2023/10/03 06:15:00;;;;;;;12.57;12.18;;;;;;;-141.02;100.00;39738.88;5072183;28;20680;-60
2023/10/03 06:17:27;;;;;;;11.88;11.48;;;;;;;-141.02;100.00;39727.38;5072547;28;20263;-62
2023/10/03 06:19:54;;;;;;;11.90;11.50;;;;;;;-141.02;100.00;39715.88;5072146;28;20226;-64
2023/10/03 06:22:22;;;;;;;11.82;11.43;;;;;;;-141.02;100.00;39735.06;5072068;28;20709;-62
2023/10/03 06:24:49;;;;;;;12.18;11.77;;;;;;;-141.02;100.00;39712.03;5072083;28;20201;-63
2023/10/03 06:27:16;;;;;;;11.90;11.50;;;;;;;-141.02;100.00;39736.97;5072053;28;20205;-62
2023/10/03 06:29:43;;;;;;;12.30;11.90;;;;;;;-141.02;100.00;39773.41;5072124;28;20289;-63
2023/10/03 06:32:12;;;;;;;12.50;12.10;;;;;;;-141.02;100.00;39754.22;5071950;28;20251;-58
2023/10/03 06:34:39;;;;;;;12.50;12.10;;;;;;;-141.02;100.00;39748.47;5072410;28;20275;-62
2023/10/03 06:37:06;;;;;;;12.27;11.88;;;;;;;-141.02;100.00;39779.16;5071821;28;20230;-60
2023/10/03 06:39:34;;;;;;;12.52;12.13;;;;;;;-141.02;100.00;39773.41;5072216;28;20273;-59
2023/10/03 06:42:01;;;;;;;12.25;11.85;;;;;;;-141.02;100.00;39777.25;5072213;28;20238;-60
2023/10/03 06:44:28;;;;;;;12.48;12.07;;;;;;;-141.02;100.00;39790.69;5071927;28;20206;-62
2023/10/03 06:46:55;;;;;;;12.50;12.10;;;;;;;-141.02;100.00;39817.53;5072222;28;20198;-63
2023/10/03 06:49:23;;;;;;;13.43;13.02;;;;;;;-141.02;100.00;39823.28;5071854;28;20676;-64
2023/10/03 06:51:52;;;;;;;13.40;13.00;;;;;;;-141.02;100.00;39819.44;5071805;28;20266;-59
2023/10/03 06:54:20;;;;;;;12.90;12.50;;;;;;;-141.02;100.00;39838.63;5075167;28;20280;-61
2023/10/03 06:56:48;;;;;;;13.27;12.88;;;;;;;-141.02;100.00;39865.47;5076237;28;20278;-60
2023/10/03 06:59:15;;;;;;;13.57;13.15;;;;;;;-141.02;100.00;39861.66;5076176;28;20201;-62
2023/10/03 07:01:42;;;;;;;12.70;12.30;;;;;;;-141.02;100.00;39861.66;5075792;28;20289;-62
2023/10/03 07:04:09;;;;;;;13.10;12.70;;;;;;;-141.02;100.00;39884.66;5075742;28;20316;-59
2023/10/03 07:06:37;;;;;;;12.80;12.40;;;;;;;-141.02;100.00;39880.81;5076086;28;20277;-61
2023/10/03 07:09:07;;;;;;;13.32;12.93;;;;;;;-141.02;100.00;39878.91;5075723;28;20194;-63
2023/10/03 07:11:34;;;;;;;13.82;13.32;;;;;;;-141.02;100.00;39877.00;5076037;28;20240;-61
2023/10/03 07:14:02;;;;;;;14.20;13.70;;;;;;;-141.02;100.00;39946.03;5075866;28;20622;-61
2023/10/03 07:16:37;;;;;;;15.02;14.43;;;;;;;-141.02;100.00;39965.22;5075842;28;20249;-61
2023/10/03 07:19:04;;;;;;;15.30;14.70;;;;;;;-141.02;100.00;40009.34;5075779;28;20186;-62
2023/10/03 07:21:31;;;;;;;15.90;15.20;;;;;;;-141.02;100.00;40082.22;5075467;28;20198;-59
2023/10/03 07:23:59;;;;;;;16.20;15.50;;;;;;;-141.02;100.00;40164.72;5075641;28;20703;-62
2023/10/03 07:26:27;;;;;;;16.40;15.70;;;;;;;-141.02;100.00;40235.69;5075653;28;20197;-60
2023/10/03 07:28:57;;;;;;;16.42;15.73;;;;;;;-141.02;100.00;40345.03;5075296;28;20194;-60
2023/10/03 07:31:24;;;;;;;17.00;16.20;;;;;;;-141.02;99.79;40448.63;5075159;28;20732;-59
2023/10/03 07:33:53;;;;;;;16.83;16.13;;;;;;;-141.02;98.82;40504.25;5075227;28;20583;-61
2023/10/03 07:36:20;;;;;;;16.88;16.17;;;;;;;-141.02;97.54;40552.22;5075141;28;20607;-62
2023/10/03 07:38:47;;;;;;;16.88;16.17;;;;;;;-141.02;95.67;40594.41;5075427;28;20195;-62
2023/10/03 07:41:17;;;;;;;17.30;16.50;;;;;;;-141.02;91.59;40651.97;5074970;28;20652;-64
2023/10/03 07:43:47;;;;;;;17.15;16.35;;;;;;;-141.02;91.29;40728.72;5075202;28;20678;-61
2023/10/03 07:46:20;;;;;;;17.60;16.80;;;;;;;-141.02;89.05;40747.91;5075624;28;20198;-61
2023/10/03 07:48:48;;;;;;;17.42;16.63;;;;;;;-141.02;89.34;40759.41;5075274;28;20190;-60
2023/10/03 07:51:19;;;;;;;17.80;17.00;;;;;;;-141.02;87.23;40790.09;5075184;28;20251;-60
2023/10/03 07:53:46;;;;;;;17.73;16.92;;;;;;;-141.02;86.76;40840.00;5074767;28;20279;-62
2023/10/03 07:56:25;;;;;;;17.48;16.67;;;;;;;-141.02;84.96;40878.38;5075045;28;20190;-61
2023/10/03 07:58:54;;;;;;;17.38;16.58;;;;;;;-141.02;82.96;40928.25;5074758;28;20248;-63
2023/10/03 08:01:23;;;;;;;17.75;16.95;;;;;;;-141.02;81.49;40966.63;5074997;28;20205;-64
2023/10/03 08:03:52;;;;;;;17.65;16.85;;;;;;;-141.02;77.50;41012.66;5074535;28;20770;-62
2023/10/03 08:06:21;;;;;;;17.52;16.73;;;;;;;-141.02;76.33;41043.38;5074006;28;20201;-63
2023/10/03 08:08:48;;;;;;;17.75;16.95;;;;;;;-141.02;77.43;41085.59;5074817;28;20552;-61
2023/10/03 08:11:15;;;;;;;17.20;16.40;;;;;;;-141.02;75.18;41081.75;5074494;28;20194;-64
2023/10/03 08:13:43;;;;;;;17.23;16.42;;;;;;;-141.02;74.08;41123.97;5074775;28;20200;-61
2023/10/03 08:16:14;;;;;;;17.30;16.50;;;;;;;-141.02;74.13;41168.09;5074455;28;20220;-61
2023/10/03 08:18:46;;;;;;;17.52;16.73;;;;;;;-141.02;73.58;41162.34;5074401;28;20571;-62
2023/10/03 08:21:13;;;;;;;17.45;16.65;;;;;;;-141.02;75.31;41198.78;5074562;28;20198;-59
2023/10/03 08:23:40;;;;;;;17.20;16.40;;;;;;;-141.02;71.73;41221.81;5074620;28;20307;-61
2023/10/03 08:26:07;;;;;;;17.38;16.58;;;;;;;-141.02;71.84;41254.44;5074535;28;20195;-60
2023/10/03 08:28:35;;;;;;;17.50;16.70;;;;;;;-141.02;70.81;41335.03;5074194;28;20201;-60
2023/10/03 08:31:07;;;;;;;17.63;16.73;;;;;;;-141.02;70.05;41356.13;5074116;28;20576;-65
2023/10/03 08:33:37;;;;;;;17.42;16.63;;;;;;;-141.02;72.33;41379.16;5074160;28;20640;-64
2023/10/03 08:36:14;;;;;;;17.55;16.75;;;;;;;-141.02;68.81;41354.22;5073897;28;20195;-63
2023/10/03 08:38:43;;;;;;;17.65;16.85;;;;;;;-141.02;70.10;41404.09;5074113;28;20190;-66
2023/10/03 08:41:15;;;;;;;17.38;16.58;;;;;;;-141.02;67.43;41446.31;5074255;28;20194;-65
2023/10/03 08:43:43;;;;;;;17.77;16.98;;;;;;;-141.02;66.51;41484.72;5074138;28;20218;-64
2023/10/03 08:46:16;;;;;;;17.92;17.02;;;;;;;-141.02;67.29;41503.91;5073900;28;20194;-64
2023/10/03 08:48:44;;;;;;;17.67;16.77;;;;;;;-141.02;65.29;41540.34;5073833;28;20191;-64
2023/10/03 08:51:13;;;;;;;17.27;16.48;;;;;;;-141.02;65.07;41549.94;5073751;28;20579;-65
2023/10/03 08:53:41;;;;;;;17.45;16.65;;;;;;;-141.02;64.79;41574.91;5073981;28;20259;-65
2023/10/03 08:56:08;;;;;;;17.67;16.77;;;;;;;-141.02;65.08;41588.34;5073727;28;20760;-65
2023/10/03 08:58:36;;;;;;;17.77;16.88;;;;;;;-141.02;64.92;41645.91;5073530;28;20202;-64
2023/10/03 09:01:03;;;;;;;17.77;16.90;;;;;;;-141.02;63.58;41649.75;5073877;28;20198;-66
2023/10/03 09:03:46;;;;;;;17.75;16.95;;;;;;;-141.02;63.29;41668.94;5073481;28;20304;-66
2023/10/03 09:06:19;;;;;;;17.45;16.65;;;;;;;-141.02;63.84;41711.16;5073498;28;20194;-64
2023/10/03 09:08:48;;;;;;;17.65;16.85;;;;;;;-141.02;63.75;41728.44;5073688;28;20289;-62
2023/10/03 09:11:15;;;;;;;17.48;16.67;;;;;;;-141.02;63.52;41732.25;5073704;28;20208;-65
2023/10/03 09:13:45;;;;;;;17.40;16.60;;;;;;;-141.02;64.23;41764.88;5073626;28;20288;-65
2023/10/03 09:16:14;;;;;;;17.30;16.50;;;;;;;-141.02;63.78;41791.75;5072708;28;20197;-64
2023/10/03 09:18:43;;;;;;;17.48;16.67;;;;;;;-141.02;63.20;41793.69;5073135;28;20237;-64
2023/10/03 09:21:15;;;;;;;17.70;16.90;;;;;;;-141.02;62.13;41878.13;5073132;28;20195;-65
2023/10/03 09:24:12;;;;;;;17.88;17.08;;;;;;;-141.02;63.44;41876.19;5073114;28;20222;-66
2023/10/03 09:26:46;;;;;;;17.88;17.02;;;;;;;-141.02;63.39;41878.13;5073401;28;20218;-65
2023/10/03 09:29:18;;;;;;;17.33;16.52;;;;;;;-141.02;63.19;41853.16;5073001;28;20666;-65
2023/10/03 09:31:48;;;;;;;17.50;16.70;;;;;;;-141.02;60.68;41906.91;5073023;28;20197;-63
2023/10/03 09:34:17;;;;;;;17.25;16.45;;;;;;;-141.02;61.98;41972.16;5073204;28;20281;-63
2023/10/03 09:36:44;;;;;;;17.85;16.95;;;;;;;-141.02;61.73;41933.78;5072854;28;20238;-58
2023/10/03 09:39:20;;;;;;;17.60;16.80;;;;;;;-141.02;61.66;41991.34;5072720;28;20226;-60
2023/10/03 09:41:54;;;;;;;17.60;16.80;;;;;;;-141.02;62.07;41976.00;5072817;28;20186;-62
2023/10/03 09:44:29;;;;;;;17.17;16.38;;;;;;;-141.02;61.37;42010.53;5072661;28;20253;-60
2023/10/03 09:47:00;;;;;;;16.88;16.08;;;;;;;-141.02;61.52;41987.50;5073033;28;20190;-63
2023/10/03 09:49:36;;;;;;;16.88;16.08;;;;;;;-141.02;61.06;42029.75;5072896;28;20197;-64
2023/10/03 09:52:09;;;;;;;47.10;44.45;;;;;;;-141.02;59.81;42039.34;5072936;28;20198;-62
2023/10/03 09:54:37;;;;;;;17.00;16.20;;;;;;;-141.02;60.13;42029.75;5072486;28;20193;-62
2023/10/03 09:57:15;;;;;;;17.38;16.58;;;;;;;-141.02;60.97;42071.97;5072483;28;20194;-62
2023/10/03 09:59:45;;;;;;;16.77;16.02;;;;;;;-141.02;60.00;42077.72;5072771;28;20190;-62
2023/10/03 10:02:14;;;;;;;16.48;15.77;;;;;;;-141.02;60.33;42050.84;5072417;28;20198;-60
2023/10/03 10:04:44;;;;;;;16.58;15.88;;;;;;;-141.02;62.10;42133.38;5072240;28;20230;-65
2023/10/03 10:07:17;;;;;;;16.35;15.65;;;;;;;-141.02;63.38;42152.56;5072724;28;20221;-61
2023/10/03 10:09:55;;;;;;;16.83;16.02;;;;;;;-141.02;61.93;42085.41;5072253;28;20187;-60
2023/10/03 10:12:22;;;;;;;16.67;15.88;;;;;;;-141.02;59.89;42071.97;5072673;28;20224;-61
2023/10/03 10:15:17;;;;;;;16.70;15.90;;;;;;;-141.02;60.15;42077.72;5072598;28;20229;-65
2023/10/03 10:17:49;;;;;;;16.50;15.73;;;;;;;-141.02;59.11;42102.66;5072606;28;20191;-62
2023/10/03 10:20:21;;;;;;;16.55;15.75;;;;;;;-141.02;59.18;42152.56;5072525;28;20186;-65
2023/10/03 10:23:20;;;;;;;16.73;15.93;;;;;;;-141.02;58.73;42091.16;5072515;28;20194;-64
2023/10/03 10:25:51;;;;;;;16.52;15.82;;;;;;;-141.02;58.30;42091.16;5072202;28;20187;-62
2023/10/03 10:28:26;;;;;;;16.75;16.05;;;;;;;-141.02;58.79;42133.38;5072077;28;20670;-63
2023/10/03 10:31:17;;;;;;;16.63;15.93;;;;;;;-141.02;60.63;42175.59;5072422;28;20194;-65
2023/10/03 10:33:45;;;;;;;15.95;15.25;;;;;;;-141.02;58.04;42183.28;5072022;28;20198;-61
2023/10/03 10:36:13;;;;;;;16.05;15.35;;;;;;;-141.02;56.79;42175.59;5071793;28;20222;-63
2023/10/03 10:38:52;;;;;;;15.93;15.23;;;;;;;-141.02;57.52;42137.22;5072366;28;20256;-61
2023/10/03 10:41:26;;;;;;;16.27;15.57;;;;;;;-141.02;57.44;42152.56;5072271;28;20182;-63
2023/10/03 10:44:14;;;;;;;16.30;15.60;;;;;;;-141.02;57.01;42175.59;5071902;28;20692;-62
2023/10/03 10:46:44;;;;;;;16.77;16.08;;;;;;;-141.02;56.95;42206.31;5072222;28;20198;-64
2023/10/03 10:49:51;;;;;;;17.73;16.92;;;;;;;-141.02;56.36;42202.47;5072404;28;20277;-61
2023/10/03 10:52:20;;;;;;;17.02;16.33;;;;;;;-141.02;56.96;42217.84;5071933;28;20281;-61
2023/10/03 10:54:47;;;;;;;18.45;17.55;;;;;;;-141.02;56.68;42242.78;5072076;28;20206;-62
2023/10/03 10:57:16;;;;;;;16.88;16.17;;;;;;;-141.02;57.06;42238.94;5071796;28;20651;-64
2023/10/03 10:59:45;;;;;;;16.85;16.15;;;;;;;-141.02;57.05;42244.72;5071778;28;20201;-61
2023/10/03 11:02:17;;;;;;;17.20;16.40;;;;;;;-141.02;56.59;42285.00;5072076;28;20252;-64
2023/10/03 11:04:47;;;;;;;16.65;15.95;;;;;;;-141.02;56.58;42277.34;5071943;28;20226;-62
2023/10/03 11:07:22;;;;;;;16.63;15.93;;;;;;;-141.02;56.65;42263.91;5071725;28;20190;-63
2023/10/03 11:09:50;;;;;;;17.42;16.63;;;;;;;-141.02;55.90;42267.75;5071617;28;20194;-62
2023/10/03 11:12:27;;;;;;;16.80;16.10;;;;;;;-141.02;55.03;42275.41;5071701;28;20230;-63
2023/10/03 11:14:55;;;;;;;16.58;15.88;;;;;;;-141.02;56.10;42323.41;5071630;28;20190;-63
2023/10/03 11:17:22;;;;;;;16.90;16.20;;;;;;;-141.02;55.69;42317.66;5071620;28;20656;-64
2023/10/03 11:19:50;;;;;;;17.20;16.40;;;;;;;-141.02;55.05;42344.53;5071555;28;20194;-61
2023/10/03 11:22:18;;;;;;;17.40;16.60;;;;;;;-141.02;55.67;42384.81;5071502;28;20578;-64
2023/10/03 11:24:46;;;;;;;16.80;16.10;;;;;;;-141.02;55.31;42352.19;5071483;28;20226;-63
2023/10/03 11:27:23;;;;;;;16.90;16.20;;;;;;;-141.02;54.84;42402.09;5071804;28;20726;-62